Time;durP1;ratioP1;P1;durP2;ratioP2;P2;SDS_P1;SDS_P2;PMS_P1;PMS_P2;Temp;Humidity;BMP_temperature;BMP_pressure;BME280_temperature;BME280_humidity;BME280_pressure;Samples;Min_cycle;Max_cycle;Signal;HPM_P1;HPM_P2
2022/08/18 00:01:39;;;;;;;15.65;6.28;;;24.90;99.90;;;;;;5066393;28;20520;-83
2022/08/18 00:04:06;;;;;;;8.52;5.35;;;24.90;99.90;;;;;;5065651;28;20086;-81
2022/08/18 00:06:32;;;;;;;11.80;6.72;;;24.80;99.90;;;;;;5064876;28;20036;-82
2022/08/18 00:09:00;;;;;;;14.40;6.40;;;24.80;99.90;;;;;;5065370;28;20048;-82
2022/08/18 00:11:29;;;;;;;12.02;6.80;;;24.70;99.90;;;;;;5065500;28;20071;-81
2022/08/18 00:13:55;;;;;;;22.75;6.25;;;24.70;99.90;;;;;;5065890;28;20517;-81
2022/08/18 00:16:21;;;;;;;13.85;6.65;;;24.70;99.90;;;;;;5065032;28;20037;-83
2022/08/18 00:18:46;;;;;;;14.48;6.88;;;24.70;99.90;;;;;;5065930;28;20063;-82
2022/08/18 00:21:12;;;;;;;15.35;6.50;;;24.70;99.90;;;;;;5064720;28;20020;-82
2022/08/18 00:23:38;;;;;;;9.68;6.30;;;24.70;99.90;;;;;;5065725;28;20382;-82
2022/08/18 00:26:03;;;;;;;11.43;6.68;;;24.60;99.90;;;;;;5065047;28;20028;-81
2022/08/18 00:28:29;;;;;;;11.23;6.05;;;24.60;99.90;;;;;;5066716;28;20346;-82
2022/08/18 00:30:55;;;;;;;7.88;5.97;;;24.70;99.90;;;;;;5064914;28;20020;-81
2022/08/18 00:33:21;;;;;;;13.85;6.40;;;24.60;99.90;;;;;;5065594;28;20029;-82
2022/08/18 00:35:47;;;;;;;10.38;6.68;;;24.70;99.90;;;;;;5065432;28;20056;-82
2022/08/18 00:38:12;;;;;;;10.80;5.65;;;24.60;99.90;;;;;;5065328;28;20067;-82
2022/08/18 00:40:45;;;;;;;11.85;5.95;;;24.60;99.90;;;;;;5067020;28;20086;-82
2022/08/18 00:43:18;;;;;;;11.77;6.15;;;24.60;99.90;;;;;;5064661;28;20033;-83
2022/08/18 00:45:45;;;;;;;7.60;6.38;;;24.60;99.90;;;;;;5064409;28;20035;-82
2022/08/18 00:48:13;;;;;;;10.60;5.90;;;24.60;99.90;;;;;;5065466;28;20040;-82
2022/08/18 00:50:44;;;;;;;13.52;6.03;;;24.60;99.90;;;;;;5064863;28;20607;-82
2022/08/18 00:53:40;;;;;;;12.45;6.82;;;24.50;99.90;;;;;;5068465;28;20028;-81
2022/08/18 00:56:11;;;;;;;13.95;6.93;;;24.60;99.90;;;;;;5067831;28;20032;-81
2022/08/18 00:58:48;;;;;;;13.80;6.65;;;24.60;99.90;;;;;;5069955;28;20051;-82
2022/08/18 01:01:18;;;;;;;11.32;6.28;;;24.50;99.90;;;;;;5069928;28;20552;-84
2022/08/18 01:03:52;;;;;;;13.57;6.35;;;24.50;99.90;;;;;;5068450;28;20024;-82
2022/08/18 01:06:31;;;;;;;13.23;6.13;;;24.50;99.90;;;;;;5067562;28;20305;-81
2022/08/18 01:08:56;;;;;;;9.10;6.50;;;24.50;99.90;;;;;;5068072;28;20534;-81
2022/08/18 01:11:22;;;;;;;11.93;6.13;;;24.50;99.90;;;;;;5068678;28;20029;-81
2022/08/18 01:13:48;;;;;;;12.05;6.28;;;24.50;99.90;;;;;;5067955;28;20068;-81
2022/08/18 01:21:50;;;;;;;14.73;6.90;;;24.40;99.90;;;;;;5069463;28;20100;-82
2022/08/18 01:25:58;;;;;;;15.52;6.20;;;24.40;99.90;;;;;;5068231;28;20519;-81
2022/08/18 01:27:16;;;;;;;12.98;6.50;;;24.40;99.90;;;;;;5069497;28;20048;-82
2022/08/18 01:29:46;;;;;;;7.10;5.60;;;24.40;99.90;;;;;;5066911;28;20094;-82
2022/08/18 01:32:18;;;;;;;16.20;6.20;;;24.40;99.90;;;;;;5067694;28;20021;-82
2022/08/18 01:34:46;;;;;;;9.60;6.00;;;24.30;99.90;;;;;;5067846;28;20028;-82
2022/08/18 01:37:16;;;;;;;13.52;6.13;;;24.30;99.90;;;;;;5067903;28;20021;-82
2022/08/18 01:39:43;;;;;;;11.05;7.15;;;24.30;99.90;;;;;;5067379;28;20077;-82
2022/08/18 01:42:09;;;;;;;14.90;7.00;;;24.30;99.90;;;;;;5069142;28;20020;-83
2022/08/18 01:44:35;;;;;;;8.52;5.97;;;24.30;99.90;;;;;;5068948;28;20115;-82
2022/08/18 01:47:01;;;;;;;12.45;6.65;;;24.30;99.90;;;;;;5068705;28;20540;-82
2022/08/18 01:49:27;;;;;;;14.35;6.40;;;24.30;99.90;;;;;;5067552;28;20090;-82
2022/08/18 01:51:54;;;;;;;14.77;5.93;;;24.30;99.90;;;;;;5067344;28;20396;-83
2022/08/18 01:54:20;;;;;;;10.45;6.03;;;24.20;99.90;;;;;;5067541;28;20028;-83
2022/08/18 01:56:48;;;;;;;15.15;6.65;;;24.20;99.90;;;;;;5068719;28;20029;-82
2022/08/18 01:59:13;;;;;;;13.10;6.05;;;24.20;99.90;;;;;;5086362;28;20481;-83
2022/08/18 02:01:41;;;;;;;7.90;5.65;;;24.20;99.90;;;;;;5089332;28;20446;-82
2022/08/18 02:04:08;;;;;;;10.15;5.60;;;24.10;99.90;;;;;;5087046;28;20131;-82
2022/08/18 02:06:34;;;;;;;11.23;5.60;;;24.10;99.90;;;;;;5103609;28;20119;-82
2022/08/18 02:08:59;;;;;;;11.18;5.65;;;24.10;99.90;;;;;;5067528;28;20259;-82
2022/08/18 02:11:25;;;;;;;19.48;6.32;;;24.00;99.90;;;;;;5067285;28;20083;-82
2022/08/18 02:13:51;;;;;;;11.90;5.68;;;24.10;99.90;;;;;;5066695;28;20029;-82
2022/08/18 02:16:16;;;;;;;10.75;5.38;;;24.00;99.90;;;;;;5078785;28;20124;-81
2022/08/18 02:18:42;;;;;;;13.95;5.72;;;24.00;99.90;;;;;;5081553;28;20029;-82
2022/08/18 02:21:14;;;;;;;15.18;5.78;;;23.90;99.90;;;;;;5082200;28;20028;-82
2022/08/18 02:23:42;;;;;;;12.98;6.43;;;23.90;99.90;;;;;;5068545;28;20119;-82
2022/08/18 02:26:11;;;;;;;18.50;6.47;;;23.80;99.90;;;;;;5068251;28;20071;-82
2022/08/18 02:28:37;;;;;;;12.10;6.07;;;23.70;99.90;;;;;;5067527;28;20069;-81
2022/08/18 02:31:07;;;;;;;14.95;6.45;;;23.60;99.90;;;;;;5066585;28;20024;-81
2022/08/18 02:33:33;;;;;;;9.75;5.93;;;23.50;99.90;;;;;;5066946;28;20020;-83
2022/08/18 02:36:00;;;;;;;13.10;6.05;;;23.40;99.90;;;;;;5067826;28;20709;-82
2022/08/18 02:38:26;;;;;;;13.27;7.10;;;23.40;99.90;;;;;;5068110;28;20094;-82
2022/08/18 02:41:00;;;;;;;10.75;6.72;;;23.30;99.90;;;;;;5066750;28;20123;-83
2022/08/18 02:43:27;;;;;;;13.60;5.78;;;23.30;99.90;;;;;;5066274;28;20032;-82
2022/08/18 02:45:53;;;;;;;8.57;6.47;;;23.20;99.90;;;;;;5067601;28;20070;-80
2022/08/18 02:48:34;;;;;;;10.25;5.45;;;23.20;99.90;;;;;;5068051;28;20036;-82
2022/08/18 02:51:12;;;;;;;9.00;5.80;;;23.20;99.90;;;;;;5066638;28;20028;-82
2022/08/18 02:53:40;;;;;;;10.30;5.95;;;23.20;99.90;;;;;;5066181;28;20031;-81
2022/08/18 02:56:23;;;;;;;13.52;6.35;;;23.20;99.90;;;;;;5065850;28;20127;-83
2022/08/18 02:59:08;;;;;;;9.85;5.93;;;23.20;99.90;;;;;;5065946;28;20035;-82
2022/08/18 03:01:37;;;;;;;9.77;5.88;;;23.20;99.90;;;;;;5066244;28;20020;-83
2022/08/18 03:04:05;;;;;;;9.98;6.60;;;23.20;99.90;;;;;;5066038;28;20522;-81
2022/08/18 03:06:32;;;;;;;12.32;7.03;;;23.10;99.90;;;;;;5066509;28;20097;-81
2022/08/18 03:08:57;;;;;;;10.77;6.43;;;23.10;99.90;;;;;;5065938;28;20454;-81
2022/08/18 03:11:28;;;;;;;9.90;6.40;;;23.00;99.90;;;;;;5066286;28;20143;-82
2022/08/18 03:13:55;;;;;;;15.88;6.75;;;23.00;99.90;;;;;;5066518;28;20499;-82
2022/08/18 03:16:23;;;;;;;14.13;6.10;;;22.90;99.90;;;;;;5065399;28;20058;-82
2022/08/18 03:18:50;;;;;;;13.85;6.10;;;22.90;99.90;;;;;;5065930;28;20032;-82
2022/08/18 03:21:23;;;;;;;10.43;6.10;;;22.90;99.90;;;;;;5066678;28;20029;-82
2022/08/18 03:23:51;;;;;;;10.52;7.28;;;22.80;99.90;;;;;;5065902;28;21436;-80
2022/08/18 03:26:18;;;;;;;10.88;6.28;;;22.80;99.90;;;;;;5067394;28;20032;-81
2022/08/18 03:28:46;;;;;;;11.75;6.35;;;22.80;99.90;;;;;;5066868;28;20052;-81
2022/08/18 03:31:13;;;;;;;7.20;6.20;;;22.70;99.90;;;;;;5066029;28;20123;-79
2022/08/18 03:33:41;;;;;;;9.77;5.15;;;22.70;99.90;;;;;;5066094;28;20028;-82
2022/08/18 03:36:23;;;;;;;14.10;6.25;;;22.60;99.90;;;;;;5065952;28;20032;-82
2022/08/18 03:38:49;;;;;;;16.25;6.32;;;22.60;99.90;;;;;;5065787;28;20036;-82
2022/08/18 03:41:18;;;;;;;9.05;6.43;;;22.60;99.90;;;;;;5067178;28;20021;-81
2022/08/18 03:43:44;;;;;;;11.35;6.10;;;22.60;99.90;;;;;;5067171;28;20033;-82
2022/08/18 03:46:13;;;;;;;9.55;6.72;;;22.60;99.90;;;;;;5070808;28;20039;-84
2022/08/18 03:48:40;;;;;;;9.05;5.75;;;22.70;99.90;;;;;;5068434;28;20040;-84
2022/08/18 03:51:09;;;;;;;11.27;6.78;;;22.70;99.90;;;;;;5068504;28;20047;-83
2022/08/18 03:53:35;;;;;;;11.90;5.88;;;22.60;99.90;;;;;;5072963;28;20036;-84
2022/08/18 03:56:05;;;;;;;10.27;6.80;;;22.70;99.90;;;;;;5087343;28;20028;-83
2022/08/18 03:58:30;;;;;;;11.02;6.55;;;22.70;99.90;;;;;;5085126;28;20028;-82
2022/08/18 04:00:56;;;;;;;10.75;6.30;;;22.70;99.90;;;;;;5085336;28;20034;-83
2022/08/18 04:03:22;;;;;;;11.32;6.25;;;22.70;99.90;;;;;;5066396;28;20554;-81
2022/08/18 04:05:47;;;;;;;10.25;6.63;;;22.70;99.90;;;;;;5065603;28;20024;-81
2022/08/18 04:08:13;;;;;;;14.82;6.53;;;22.70;99.90;;;;;;5066102;28;20032;-83
2022/08/18 04:10:39;;;;;;;9.90;6.72;;;22.70;99.90;;;;;;5067604;28;20067;-82
2022/08/18 04:13:05;;;;;;;10.70;6.55;;;22.70;99.90;;;;;;5067744;28;20048;-81
2022/08/18 04:15:31;;;;;;;8.18;6.30;;;22.70;99.90;;;;;;5067160;28;20032;-83
2022/08/18 04:18:06;;;;;;;10.10;6.53;;;22.80;99.90;;;;;;5067238;28;20133;-83
2022/08/18 04:20:33;;;;;;;9.23;5.82;;;22.80;99.90;;;;;;5067130;28;20119;-83
2022/08/18 04:22:59;;;;;;;16.90;7.00;;;22.90;99.90;;;;;;5065666;28;20021;-82
2022/08/18 04:25:25;;;;;;;12.82;6.15;;;23.00;99.90;;;;;;5069886;28;20137;-82
2022/08/18 04:27:56;;;;;;;15.52;5.90;;;23.10;99.90;;;;;;5068273;28;20078;-82
2022/08/18 04:30:22;;;;;;;8.63;5.68;;;23.20;99.90;;;;;;5083363;28;20028;-83
2022/08/18 04:32:49;;;;;;;10.85;6.28;;;23.20;99.90;;;;;;5091136;28;20036;-82
2022/08/18 04:35:14;;;;;;;10.80;6.20;;;23.30;99.90;;;;;;5088845;28;20028;-82
2022/08/18 04:37:40;;;;;;;11.10;6.22;;;23.50;99.90;;;;;;5082134;28;20027;-82
2022/08/18 04:40:06;;;;;;;10.77;6.57;;;23.60;99.90;;;;;;5068839;28;20017;-81
2022/08/18 04:42:32;;;;;;;9.20;5.78;;;23.70;99.90;;;;;;5068449;28;20033;-81
2022/08/18 04:44:58;;;;;;;7.32;5.43;;;23.80;99.90;;;;;;5068136;28;20393;-82
2022/08/18 04:47:23;;;;;;;10.05;6.20;;;23.90;99.90;;;;;;5068859;28;20477;-81
2022/08/18 04:49:49;;;;;;;10.85;6.05;;;24.10;99.90;;;;;;5069333;28;20032;-83
2022/08/18 04:55:01;;;;;;;12.85;6.18;;;24.40;99.90;;;;;;5070201;28;20039;-81
2022/08/18 04:57:27;;;;;;;9.55;5.43;;;24.50;99.90;;;;;;5069198;28;20099;-81
2022/08/18 04:59:53;;;;;;;11.25;5.53;;;24.70;99.90;;;;;;5066771;28;20029;-82
2022/08/18 05:02:20;;;;;;;15.13;6.05;;;24.90;99.90;;;;;;5062982;28;20043;-82
2022/08/18 05:04:47;;;;;;;10.77;6.47;;;25.30;99.90;;;;;;5069909;28;20036;-81
2022/08/18 05:07:16;;;;;;;9.43;5.18;;;25.50;99.90;;;;;;5070504;28;20078;-81
2022/08/18 05:09:41;;;;;;;12.68;5.38;;;25.70;99.90;;;;;;5068481;28;20044;-82
2022/08/18 05:12:11;;;;;;;13.77;6.57;;;25.80;99.90;;;;;;5069774;28;20457;-81
2022/08/18 05:14:36;;;;;;;14.88;5.50;;;25.90;99.90;;;;;;5069561;28;20468;-82
2022/08/18 05:17:03;;;;;;;9.32;5.57;;;26.00;99.90;;;;;;5069840;28;20120;-82
2022/08/18 05:19:30;;;;;;;7.53;5.15;;;26.20;99.90;;;;;;5069543;28;20165;-81
2022/08/18 05:21:57;;;;;;;8.45;5.80;;;26.50;99.90;;;;;;5069109;28;20090;-82
2022/08/18 05:24:25;;;;;;;12.05;5.53;;;26.80;99.90;;;;;;5068245;28;20056;-83
2022/08/18 05:26:51;;;;;;;11.40;6.10;;;27.20;99.90;;;;;;5066926;28;20050;-83
2022/08/18 05:29:20;;;;;;;9.15;4.80;;;27.60;99.90;;;;;;5068088;28;20032;-81
2022/08/18 05:31:48;;;;;;;7.95;4.65;;;28.00;99.80;;;;;;5069995;28;20557;-81
2022/08/18 05:34:14;;;;;;;14.82;5.47;;;28.30;99.00;;;;;;5067784;28;20031;-83
2022/08/18 05:37:24;;;;;;;10.05;5.03;;;28.60;98.10;;;;;;5070061;28;20031;-84
2022/08/18 05:39:57;;;;;;;13.30;5.10;;;28.70;97.50;;;;;;5068991;28;20025;-85
2022/08/18 05:42:34;;;;;;;11.70;5.13;;;28.90;97.00;;;;;;5071657;28;20021;-86
2022/08/18 05:45:00;;;;;;;7.25;4.60;;;28.70;97.00;;;;;;5071372;28;20044;-87
2022/08/18 05:47:29;;;;;;;8.55;4.75;;;28.60;97.00;;;;;;5071172;28;20086;-83
2022/08/18 05:50:01;;;;;;;8.07;4.95;;;28.90;96.60;;;;;;5068745;28;20036;-84
2022/08/18 05:52:42;;;;;;;13.77;5.45;;;29.10;96.30;;;;;;5068479;28;20028;-82
2022/08/18 05:58:04;;;;;;;10.30;6.25;;;29.70;95.50;;;;;;5072228;28;20031;-87
2022/08/18 06:00:31;;;;;;;9.55;5.13;;;30.40;94.20;;;;;;5071070;28;20040;-86
2022/08/18 06:03:05;;;;;;;10.60;5.03;;;30.80;93.40;;;;;;5070487;28;20027;-87
2022/08/18 06:05:56;;;;;;;8.50;4.50;;;31.30;92.30;;;;;;5070690;28;20033;-87
2022/08/18 06:08:26;;;;;;;9.82;4.97;;;31.80;91.50;;;;;;5077256;28;20052;-87
2022/08/18 06:10:53;;;;;;;10.85;4.50;;;32.10;90.50;;;;;;5070826;28;20032;-85
2022/08/18 06:13:19;;;;;;;7.07;4.72;;;32.60;88.10;;;;;;5069716;28;20039;-86
2022/08/18 06:16:09;;;;;;;7.32;3.95;;;33.00;85.00;;;;;;5069385;28;20035;-86
2022/08/18 06:18:58;;;;;;;8.77;4.00;;;33.20;83.10;;;;;;5069783;28;20389;-86
2022/08/18 06:21:49;;;;;;;8.35;4.43;;;33.80;81.60;;;;;;5071319;28;20123;-86
2022/08/18 06:24:36;;;;;;;9.63;4.60;;;34.40;76.90;;;;;;5077878;28;20033;-87
2022/08/18 06:27:44;;;;;;;8.43;4.22;;;35.00;73.30;;;;;;5074102;28;20081;-85
2022/08/18 06:30:39;;;;;;;7.25;4.45;;;35.10;69.70;;;;;;5063106;28;20045;-86
2022/08/18 06:33:38;;;;;;;6.82;4.47;;;35.50;67.80;;;;;;5069209;28;20025;-83
2022/08/18 06:36:18;;;;;;;9.25;4.22;;;35.90;65.10;;;;;;5066425;28;20044;-82
2022/08/18 06:38:46;;;;;;;9.18;4.57;;;35.80;64.80;;;;;;5067190;28;20086;-83
2022/08/18 06:41:16;;;;;;;7.95;4.43;;;35.70;64.70;;;;;;5065736;28;20090;-83
2022/08/18 06:43:58;;;;;;;11.88;4.30;;;35.90;64.30;;;;;;5066085;28;20045;-83
2022/08/18 06:46:55;;;;;;;8.57;4.03;;;36.00;62.30;;;;;;5066204;28;20119;-84
2022/08/18 06:49:30;;;;;;;7.68;3.95;;;36.30;61.40;;;;;;5065037;28;20036;-83
2022/08/18 06:51:55;;;;;;;;;;;36.60;59.70;;;;;;5067029;28;20509;-83
2022/08/18 06:54:21;;;;;;;14.18;4.60;;;36.70;59.00;;;;;;5065520;28;19952;-84
2022/08/18 06:56:48;;;;;;;10.85;4.68;;;36.50;58.40;;;;;;5065874;28;20040;-83
2022/08/18 06:59:19;;;;;;;7.10;4.30;;;36.10;58.70;;;;;;5065409;28;20713;-83
2022/08/18 07:01:49;;;;;;;10.32;4.25;;;35.90;59.10;;;;;;5065001;28;20073;-83
2022/08/18 07:04:39;;;;;;;11.63;4.15;;;35.80;59.40;;;;;;5067773;28;20047;-83
2022/08/18 07:07:19;;;;;;;7.10;4.03;;;35.80;59.10;;;;;;5084477;28;20024;-85
2022/08/18 07:09:46;;;;;;;10.13;3.67;;;36.00;58.80;;;;;;5087545;28;20039;-85
2022/08/18 07:12:20;;;;;;;13.75;4.10;;;35.90;57.60;;;;;;5073466;28;20543;-86
2022/08/18 07:14:53;;;;;;;10.70;4.30;;;35.90;57.00;;;;;;5066279;28;20236;-85
2022/08/18 07:17:24;;;;;;;8.82;4.10;;;35.70;57.80;;;;;;5065915;28;20047;-83
2022/08/18 07:20:07;;;;;;;10.68;5.18;;;35.80;56.80;;;;;;5066605;28;20107;-84
2022/08/18 07:22:59;;;;;;;9.57;4.45;;;35.40;56.60;;;;;;5063456;28;20032;-84
2022/08/18 07:25:30;;;;;;;7.57;3.80;;;35.40;57.00;;;;;;5059305;28;20028;-83
2022/08/18 07:28:00;;;;;;;9.55;4.50;;;35.50;57.60;;;;;;5067407;28;20060;-85
2022/08/18 07:30:26;;;;;;;5.80;3.97;;;35.70;56.40;;;;;;5065771;28;20048;-81
2022/08/18 07:33:04;;;;;;;8.25;4.68;;;35.60;57.00;;;;;;5066251;28;20035;-81
2022/08/18 07:35:40;;;;;;;12.38;4.10;;;35.70;57.30;;;;;;5065894;28;20085;-81
2022/08/18 07:38:20;;;;;;;8.27;4.15;;;36.00;55.90;;;;;;5065961;28;20064;-82
2022/08/18 07:41:02;;;;;;;8.15;3.88;;;36.10;55.40;;;;;;5064305;28;20036;-81
2022/08/18 07:43:52;;;;;;;9.93;4.18;;;36.40;55.40;;;;;;5066023;28;20549;-81
2022/08/18 07:46:59;;;;;;;9.68;4.03;;;36.40;54.40;;;;;;5062249;28;20016;-83
2022/08/18 07:49:31;;;;;;;10.88;4.03;;;36.60;53.10;;;;;;5057704;28;20052;-81
2022/08/18 07:52:07;;;;;;;10.77;4.10;;;36.30;54.40;;;;;;5067522;28;20023;-84
2022/08/18 07:54:42;;;;;;;7.57;4.25;;;36.00;53.90;;;;;;5068220;28;20056;-84
2022/08/18 07:57:23;;;;;;;14.93;4.57;;;35.90;53.90;;;;;;5066987;28;20025;-84
2022/08/18 08:00:19;;;;;;;7.30;4.05;;;36.00;54.40;;;;;;5068851;28;20672;-83
2022/08/18 08:02:55;;;;;;;6.85;4.45;;;36.00;53.90;;;;;;5070577;28;20033;-83
2022/08/18 08:05:35;;;;;;;8.82;5.03;;;36.30;54.80;;;;;;5069256;28;20093;-81
2022/08/18 08:08:10;;;;;;;13.65;5.57;;;36.50;55.00;;;;;;5068854;28;20035;-81
2022/08/18 08:10:53;;;;;;;14.10;4.90;;;36.90;53.70;;;;;;5068314;28;20036;-81
2022/08/18 08:13:41;;;;;;;13.00;5.15;;;36.80;53.70;;;;;;5050677;28;20032;-81
2022/08/18 08:16:41;;;;;;;9.23;5.85;;;36.90;54.00;;;;;;5063255;28;20482;-82
2022/08/18 08:19:06;;;;;;;9.55;5.05;;;37.10;53.90;;;;;;5069048;28;20029;-81
2022/08/18 08:21:38;;;;;;;8.38;5.55;;;37.40;54.00;;;;;;5067668;28;20028;-81
2022/08/18 08:24:14;;;;;;;9.65;5.22;;;37.50;52.90;;;;;;5069554;28;20115;-83
2022/08/18 08:26:54;;;;;;;12.20;6.15;;;37.40;53.50;;;;;;5071863;28;20028;-83
2022/08/18 08:29:30;;;;;;;11.25;5.10;;;37.10;52.80;;;;;;5053356;28;20036;-83
2022/08/18 08:31:59;;;;;;;8.50;4.90;;;37.10;53.60;;;;;;5050141;28;20036;-82
2022/08/18 08:34:52;;;;;;;10.77;5.55;;;37.20;53.40;;;;;;5061973;28;20044;-83
2022/08/18 08:37:34;;;;;;;11.70;5.75;;;37.30;53.10;;;;;;5068685;28;20052;-82
2022/08/18 08:40:15;;;;;;;10.15;5.18;;;37.60;52.70;;;;;;5069154;28;20512;-80
2022/08/18 08:43:09;;;;;;;10.52;5.82;;;37.80;51.50;;;;;;5069843;28;20039;-81
2022/08/18 08:45:44;;;;;;;17.73;5.75;;;37.70;51.50;;;;;;5067390;28;20459;-81
2022/08/18 08:48:19;;;;;;;9.30;5.00;;;37.20;51.60;;;;;;5048489;28;20082;-82
2022/08/18 08:50:52;;;;;;;;;;;37.10;52.90;;;;;;5065749;28;20283;-82
2022/08/18 08:53:46;;;;;;;10.02;4.88;;;37.10;52.50;;;;;;5068317;28;20045;-81
2022/08/18 08:56:15;;;;;;;16.42;5.82;;;37.40;51.50;;;;;;5067762;28;20523;-82
2022/08/18 08:59:05;;;;;;;12.15;5.50;;;37.70;52.00;;;;;;5068686;28;20032;-83
2022/08/18 09:01:36;;;;;;;17.65;5.90;;;38.20;50.90;;;;;;5074481;28;20107;-82
2022/08/18 09:04:38;;;;;;;12.98;6.20;;;38.40;50.40;;;;;;5088342;28;20085;-83
2022/08/18 09:07:27;;;;;;;18.42;5.75;;;38.40;49.60;;;;;;5080315;28;20100;-83
2022/08/18 09:10:11;;;;;;;17.42;5.53;;;38.40;49.00;;;;;;5069118;28;20098;-84
2022/08/18 09:12:59;;;;;;;14.43;6.30;;;38.30;49.50;;;;;;5068424;28;20062;-84
2022/08/18 09:15:51;;;;;;;17.92;5.43;;;38.10;49.80;;;;;;5069996;28;20263;-84
2022/08/18 09:18:23;;;;;;;8.88;5.72;;;38.20;49.60;;;;;;5052266;28;20041;-83
2022/08/18 09:21:17;;;;;;;19.30;6.32;;;38.30;49.10;;;;;;5067809;28;20029;-82
2022/08/18 09:23:47;;;;;;;11.13;5.25;;;38.30;48.90;;;;;;5067608;28;20063;-82
2022/08/18 09:26:31;;;;;;;11.95;4.57;;;38.70;48.70;;;;;;5067439;28;20504;-82
2022/08/18 09:28:58;;;;;;;11.83;5.90;;;39.40;47.30;;;;;;5067061;28;20106;-83
2022/08/18 09:31:26;;;;;;;18.10;5.20;;;39.30;46.70;;;;;;5067443;28;20278;-83
2022/08/18 09:34:03;;;;;;;12.02;5.38;;;39.30;46.00;;;;;;5067729;28;20035;-83
2022/08/18 09:36:47;;;;;;;14.25;5.32;;;39.20;46.10;;;;;;5068638;28;20028;-82
2022/08/18 09:42:37;;;;;;;16.02;6.10;;;38.90;46.20;;;;;;5048919;28;20040;-83
2022/08/18 09:45:31;;;;;;;16.17;5.20;;;39.10;45.70;;;;;;5049125;28;20504;-83
2022/08/18 09:48:22;;;;;;;14.13;5.22;;;39.00;45.10;;;;;;5061953;28;20107;-84
2022/08/18 09:50:57;;;;;;;9.90;5.05;;;39.50;46.70;;;;;;5042801;28;20037;-83
2022/08/18 09:53:45;;;;;;;7.15;4.25;;;40.00;44.30;;;;;;5051504;28;20324;-84
2022/08/18 09:56:16;;;;;;;6.55;4.70;;;40.40;44.20;;;;;;5068699;28;20374;-83
2022/08/18 09:58:57;;;;;;;9.35;4.75;;;40.80;43.70;;;;;;5066713;28;20047;-83
2022/08/18 10:01:35;;;;;;;11.23;5.22;;;41.10;44.00;;;;;;5069021;28;20476;-85
2022/08/18 10:04:12;;;;;;;12.88;4.80;;;41.40;42.20;;;;;;5067945;28;20021;-83
2022/08/18 10:06:42;;;;;;;6.60;4.53;;;41.50;42.20;;;;;;5065555;28;20024;-83
2022/08/18 10:09:46;;;;;;;11.25;4.75;;;41.40;42.70;;;;;;5066027;28;20033;-83
2022/08/18 10:12:42;;;;;;;7.13;4.43;;;41.40;42.10;;;;;;5065623;28;20040;-83
2022/08/18 10:15:22;;;;;;;10.00;5.20;;;41.30;42.40;;;;;;5068694;28;20046;-84
2022/08/18 10:17:59;;;;;;;12.38;4.88;;;41.10;42.30;;;;;;5064738;28;20433;-83
2022/08/18 10:20:40;;;;;;;13.02;5.28;;;40.60;42.80;;;;;;5067773;28;20062;-83
2022/08/18 10:23:07;;;;;;;18.38;5.40;;;40.10;42.00;;;;;;5064944;28;20036;-82
2022/08/18 10:25:38;;;;;;;10.05;4.60;;;39.30;43.30;;;;;;5067480;28;20024;-84
2022/08/18 10:28:06;;;;;;;14.88;5.03;;;38.40;44.30;;;;;;5067084;28;20488;-84
2022/08/18 10:30:32;;;;;;;13.90;4.85;;;37.60;44.60;;;;;;5067913;28;20680;-84
2022/08/18 10:32:59;;;;;;;10.60;5.03;;;36.90;46.30;;;;;;5068237;28;20111;-83
2022/08/18 10:35:34;;;;;;;12.75;4.53;;;36.70;47.10;;;;;;5069522;28;20115;-83
2022/08/18 10:38:02;;;;;;;17.38;5.50;;;36.50;48.30;;;;;;5068784;28;20082;-82
2022/08/18 10:40:28;;;;;;;7.80;4.70;;;36.40;48.70;;;;;;5055723;28;20056;-85
2022/08/18 10:43:16;;;;;;;14.25;4.47;;;36.40;47.90;;;;;;5065686;28;20025;-83
2022/08/18 10:45:47;;;;;;;20.65;4.65;;;36.40;47.70;;;;;;5065322;28;20032;-83
2022/08/18 10:48:29;;;;;;;8.88;4.43;;;36.20;48.10;;;;;;5057263;28;20507;-82
2022/08/18 10:51:14;;;;;;;10.10;5.07;;;36.20;48.70;;;;;;5064978;28;20029;-87
2022/08/18 10:53:53;;;;;;;10.90;5.07;;;36.10;49.10;;;;;;5066294;28;20029;-82
2022/08/18 10:56:50;;;;;;;9.90;5.28;;;36.00;49.00;;;;;;5066142;28;20029;-82
2022/08/18 10:59:38;;;;;;;10.70;4.80;;;35.60;49.00;;;;;;5065635;28;20036;-82
2022/08/18 11:02:07;;;;;;;12.40;4.90;;;35.40;49.70;;;;;;5066410;28;20048;-82
2022/08/18 11:04:46;;;;;;;13.35;6.35;;;35.30;49.50;;;;;;5065815;28;20524;-81
2022/08/18 11:07:24;;;;;;;11.68;5.03;;;35.00;49.10;;;;;;5065060;28;20051;-80
2022/08/18 11:09:53;;;;;;;9.48;5.50;;;34.60;50.50;;;;;;5045180;28;20048;-81
2022/08/18 11:13:13;;;;;;;6.53;4.43;;;34.60;50.50;;;;;;5062671;28;20302;-80
2022/08/18 11:15:55;;;;;;;8.30;4.47;;;34.40;50.70;;;;;;5007611;28;20041;-81
2022/08/18 11:18:41;;;;;;;16.83;4.85;;;34.50;50.60;;;;;;5061729;28;20039;-80
2022/08/18 11:21:45;;;;;;;12.40;4.47;;;34.70;50.40;;;;;;5064921;28;20021;-81
2022/08/18 11:24:23;;;;;;;12.70;5.22;;;34.60;50.10;;;;;;5064514;28;20036;-80
2022/08/18 11:26:54;;;;;;;13.73;4.50;;;34.70;50.30;;;;;;5060266;28;20049;-81
2022/08/18 11:29:41;;;;;;;13.18;5.00;;;34.80;50.20;;;;;;5055750;28;20045;-80
2022/08/18 11:32:21;;;;;;;11.52;4.93;;;34.80;48.90;;;;;;5059864;28;20047;-80
2022/08/18 11:34:50;;;;;;;10.20;4.60;;;34.70;49.10;;;;;;5065211;28;20036;-80
2022/08/18 11:37:40;;;;;;;9.85;4.05;;;34.60;49.70;;;;;;5063024;28;20033;-81
2022/08/18 11:40:33;;;;;;;10.07;5.28;;;34.70;50.60;;;;;;5059751;28;20033;-80
2022/08/18 11:43:03;;;;;;;11.70;4.15;;;34.60;49.90;;;;;;5080799;28;20036;-80
2022/08/18 11:45:46;;;;;;;10.32;4.30;;;34.50;50.40;;;;;;5062990;28;20043;-80
2022/08/18 11:48:30;;;;;;;16.65;4.57;;;34.40;50.40;;;;;;5068948;28;20246;-80
2022/08/18 11:51:00;;;;;;;11.80;4.90;;;34.60;50.10;;;;;;5065855;28;20142;-80
2022/08/18 11:53:32;;;;;;;8.65;4.40;;;34.70;49.80;;;;;;5069656;28;20580;-81
2022/08/18 11:56:04;;;;;;;15.25;4.97;;;34.80;49.30;;;;;;5091411;28;20043;-81
2022/08/18 11:58:46;;;;;;;15.07;4.70;;;34.80;50.00;;;;;;5071677;28;20060;-81
2022/08/18 12:01:32;;;;;;;16.25;4.53;;;34.90;49.20;;;;;;5087198;28;20047;-80
2022/08/18 12:04:13;;;;;;;12.38;4.82;;;35.20;48.60;;;;;;5070055;28;20043;-80
2022/08/18 12:06:59;;;;;;;13.30;4.60;;;35.10;48.40;;;;;;5071518;28;20064;-79
2022/08/18 12:09:33;;;;;;;13.75;4.65;;;35.10;48.10;;;;;;5065655;28;20098;-80
2022/08/18 12:12:29;;;;;;;12.15;4.60;;;35.10;48.00;;;;;;5066052;28;20036;-80
2022/08/18 12:14:59;;;;;;;5.63;3.80;;;35.10;47.70;;;;;;5062618;28;20087;-80
2022/08/18 12:17:26;;;;;;;5.78;4.10;;;35.20;47.00;;;;;;5069552;28;20040;-80
2022/08/18 12:19:52;;;;;;;5.72;3.72;;;35.20;46.80;;;;;;5068368;28;20036;-80
2022/08/18 12:22:23;;;;;;;7.13;4.35;;;35.30;46.10;;;;;;5066989;28;20107;-80
2022/08/18 12:24:50;;;;;;;10.07;3.67;;;35.30;45.90;;;;;;5047691;28;20086;-81
2022/08/18 12:27:20;;;;;;;4.57;3.83;;;35.30;46.30;;;;;;5058790;28;20098;-80
2022/08/18 12:29:46;;;;;;;9.75;4.43;;;35.30;45.60;;;;;;5063087;28;20090;-81
2022/08/18 12:32:12;;;;;;;7.07;3.90;;;35.30;45.70;;;;;;5063093;28;20127;-82
2022/08/18 12:34:37;;;;;;;11.85;4.57;;;35.30;45.50;;;;;;5059787;28;20128;-81
2022/08/18 12:37:07;;;;;;;6.78;4.53;;;35.40;45.10;;;;;;5068908;28;20032;-81
2022/08/18 12:39:33;;;;;;;7.78;3.83;;;35.20;45.10;;;;;;5068502;28;20044;-81
2022/08/18 12:41:58;;;;;;;11.68;4.45;;;35.10;44.50;;;;;;5059158;28;20040;-81
2022/08/18 12:44:25;;;;;;;6.30;3.92;;;35.10;45.90;;;;;;5062178;28;20131;-81
2022/08/18 12:46:51;;;;;;;12.52;3.95;;;35.10;45.60;;;;;;5072354;28;20428;-81
2022/08/18 12:49:20;;;;;;;8.73;4.70;;;35.00;45.60;;;;;;5059798;28;20117;-80
2022/08/18 12:51:47;;;;;;;8.40;3.83;;;35.00;45.90;;;;;;5077886;28;20071;-81
2022/08/18 12:54:13;;;;;;;7.47;3.70;;;35.00;45.40;;;;;;5078522;28;20043;-81
2022/08/18 12:56:40;;;;;;;5.80;3.63;;;35.00;45.10;;;;;;5079735;28;20060;-82
2022/08/18 12:59:08;;;;;;;7.30;3.67;;;35.00;45.90;;;;;;5070826;28;20082;-80
2022/08/18 13:01:36;;;;;;;9.10;4.20;;;35.00;45.40;;;;;;5078004;28;20032;-80
2022/08/18 13:04:03;;;;;;;6.97;3.70;;;34.90;45.10;;;;;;5074863;28;20044;-79
2022/08/18 13:06:32;;;;;;;6.63;4.07;;;35.00;44.80;;;;;;5066651;28;20036;-81
2022/08/18 13:08:58;;;;;;;5.55;3.80;;;35.10;44.80;;;;;;5067326;28;20037;-82
2022/08/18 13:11:24;;;;;;;7.00;4.38;;;35.10;44.20;;;;;;5067890;28;20082;-81
2022/08/18 13:13:51;;;;;;;6.88;3.65;;;35.10;43.80;;;;;;5067420;28;20032;-81
2022/08/18 13:16:17;;;;;;;8.70;3.72;;;35.10;44.00;;;;;;5067421;28;20033;-80
2022/08/18 13:18:43;;;;;;;6.05;3.42;;;35.10;43.40;;;;;;5067588;28;20028;-81
2022/08/18 13:21:11;;;;;;;5.75;3.45;;;35.10;43.30;;;;;;5067393;28;20024;-81
2022/08/18 13:23:38;;;;;;;14.00;4.15;;;35.20;43.20;;;;;;5067038;28;20086;-81
2022/08/18 13:26:08;;;;;;;6.38;3.83;;;35.30;43.20;;;;;;5067345;28;20070;-80
2022/08/18 13:28:34;;;;;;;6.97;3.92;;;35.30;43.70;;;;;;5066319;28;20467;-82